Observation data for Tatum on 02/22/2019      Previous  Date  Next       Current Mesonet Observations  Soil Data  Daily Summary Page  Observations in Plain Language
KTAT 220600Z 12012KT 05/M00 A2982 RMK A01 T00521001  RH  069%=      5-min Rain = 0
KTAT 220605Z 12011KT 05/M00 A2982 RMK A01 T00501003  RH  069%=      5-min Rain = 0
KTAT 220610Z 12011KT 05/M00 A2982 RMK A01 T00481004  RH  070%=      5-min Rain = 0
KTAT 220615Z 12010KT 05/M01 A2982 RMK A01 T00461005  RH  070%=      5-min Rain = 0
KTAT 220620Z 12008KT 04/M01 A2982 RMK A01 T00431007  RH  071%=      5-min Rain = 0
KTAT 220625Z 13006KT 04/M01 A2983 RMK A01 T00401008  RH  072%=      5-min Rain = 0
KTAT 220630Z 13006KT 04/M01 A2983 RMK A01 T00371010  RH  072%=      5-min Rain = 0
KTAT 220635Z 12006KT 03/M01 A2983 RMK A01 T00301014  RH  073%=      5-min Rain = 0
KTAT 220640Z 11006KT 02/M02 A2983 RMK A01 T00241017  RH  075%=      5-min Rain = 0
KTAT 220645Z 10007KT 02/M02 A2983 RMK A01 T00191020  RH  076%=      5-min Rain = 0
KTAT 220650Z 11008KT 02/M02 A2983 RMK A01 T00161019  RH  078%=      5-min Rain = 0
KTAT 220655Z 12007KT 02/M01 A2983 RMK A01 T00221012  RH  079%=      5-min Rain = 0
KTAT 220700Z 11008KT 02/M01 A2983 RMK A01 T00231014  RH  077%=      5-min Rain = 0
KTAT 220705Z 11006KT 02/M02 A2983 RMK A01 T00201016  RH  078%=      5-min Rain = 0
KTAT 220710Z 12005KT 02/M02 A2983 RMK A01 T00191018  RH  077%=      5-min Rain = 0
KTAT 220715Z 12006KT 02/M02 A2983 RMK A01 T00161019  RH  078%=      5-min Rain = 0
KTAT 220720Z 12007KT 01/M02 A2983 RMK A01 T00131021  RH  079%=      5-min Rain = 0
KTAT 220725Z 12008KT 01/M02 A2983 RMK A01 T00121020  RH  080%=      5-min Rain = 0
KTAT 220730Z 12006KT 01/M02 A2983 RMK A01 T00121020  RH  080%=      5-min Rain = 0
KTAT 220735Z 24002KT 01/M02 A2984 RMK A01 T00121021  RH  079%=      5-min Rain = 0
KTAT 220740Z 17003KT 01/M02 A2984 RMK A01 T00111021  RH  080%=      5-min Rain = 0
KTAT 220745Z 13008KT 01/M02 A2984 RMK A01 T00131020  RH  079%=      5-min Rain = 0
KTAT 220750Z 12008KT 01/M02 A2984 RMK A01 T00131021  RH  079%=      5-min Rain = 0
KTAT 220755Z 12008KT 01/M02 A2984 RMK A01 T00111022  RH  079%=      5-min Rain = 0
KTAT 220800Z 11009KT 01/M02 A2984 RMK A01 T00091023  RH  080%=      5-min Rain = 0
KTAT 220805Z 12008KT 01/M02 A2984 RMK A01 T00081024  RH  079%=      5-min Rain = 0
KTAT 220810Z 11009KT 01/M03 A2984 RMK A01 T00071025  RH  080%=      5-min Rain = 0
KTAT 220815Z 11009KT 01/M03 A2984 RMK A01 T00071026  RH  080%=      5-min Rain = 0
KTAT 220820Z 11009KT 01/M03 A2984 RMK A01 T00061027  RH  080%=      5-min Rain = 0
KTAT 220825Z 11009KT 01/M03 A2984 RMK A01 T00051026  RH  080%=      5-min Rain = 0
KTAT 220830Z 12008KT 01/M03 A2985 RMK A01 T00051027  RH  080%=      5-min Rain = 0
KTAT 220835Z 11006KT 00/M03 A2985 RMK A01 T00021029  RH  080%=      5-min Rain = 0
KTAT 220840Z 11007KT 00/03 A2985 RMK A01 T00-00-30  RH  081%=      5-min Rain = 0
KTAT 220845Z 11008KT M00/M03 A2985 RMK A01 T10021030  RH  082%=      5-min Rain = 0
KTAT 220850Z 11008KT M00/M03 A2985 RMK A01 T10041032  RH  082%=      5-min Rain = 0
KTAT 220855Z 10007KT M01/M03 A2984 RMK A01 T10061033  RH  083%=      5-min Rain = 0
KTAT 220900Z 10006KT M01/M04 A2985 RMK A01 T10091035  RH  083%=      5-min Rain = 0
KTAT 220905Z 10007KT M01/M04 A2985 RMK A01 T10121037  RH  084%=      5-min Rain = 0
KTAT 220910Z 10007KT M02/M04 A2985 RMK A01 T10151038  RH  085%=      5-min Rain = 0
KTAT 220915Z 10007KT M01/M04 A2985 RMK A01 T10141035  RH  086%=      5-min Rain = 0
KTAT 220920Z 10007KT M02/M04 A2985 RMK A01 T10151036  RH  086%=      5-min Rain = 0
KTAT 220925Z 09006KT M02/M04 A2985 RMK A01 T10181039  RH  086%=      5-min Rain = 0
KTAT 220930Z 09006KT M02/M04 A2985 RMK A01 T10211042  RH  086%=      5-min Rain = 0
KTAT 220935Z 09006KT M02/M04 A2985 RMK A01 T10231043  RH  087%=      5-min Rain = 0
KTAT 220940Z 09006KT M03/M04 A2984 RMK A01 T10251044  RH  087%=      5-min Rain = 0
KTAT 220945Z 08005KT M03/M04 A2985 RMK A01 T10251042  RH  088%=      5-min Rain = 0
KTAT 220950Z 08004KT M02/M04 A2985 RMK A01 T10221039  RH  089%=      5-min Rain = 0
KTAT 220955Z 09004KT M02/M04 A2984 RMK A01 T10211039  RH  088%=      5-min Rain = 0
KTAT 221000Z 08005KT M02/M04 A2984 RMK A01 T10241042  RH  087%=      5-min Rain = 0
KTAT 221005Z 07004KT M02/M04 A2984 RMK A01 T10241040  RH  089%=      5-min Rain = 0
KTAT 221010Z 07004KT M02/M04 A2984 RMK A01 T10221038  RH  089%=      5-min Rain = 0
KTAT 221015Z 07004KT M02/M04 A2984 RMK A01 T10211037  RH  089%=      5-min Rain = 0
KTAT 221020Z 07003KT M02/M04 A2984 RMK A01 T10211036  RH  089%=      5-min Rain = 0
KTAT 221025Z 06004KT M02/M04 A2984 RMK A01 T10201035  RH  090%=      5-min Rain = 0
KTAT 221030Z 07005KT M02/M04 A2984 RMK A01 T10211038  RH  089%=      5-min Rain = 0
KTAT 221035Z 08005KT M03/M04 A2984 RMK A01 T10251042  RH  089%=      5-min Rain = 0
KTAT 221040Z 08005KT M03/M04 A2984 RMK A01 T10271044  RH  089%=      5-min Rain = 0
KTAT 221045Z 08005KT M03/M05 A2984 RMK A01 T10301046  RH  089%=      5-min Rain = 0
KTAT 221050Z 09005KT M03/M05 A2984 RMK A01 T10321047  RH  090%=      5-min Rain = 0
KTAT 221055Z 09005KT M03/M05 A2984 RMK A01 T10341047  RH  091%=      5-min Rain = 0
KTAT 221100Z 09006KT M04/M05 A2984 RMK A01 T10361049  RH  091%=      5-min Rain = 0
KTAT 221105Z 09006KT M04/M05 A2984 RMK A01 T10371050  RH  092%=      5-min Rain = 0
KTAT 221110Z 08006KT M04/M05 A2984 RMK A01 T10381049  RH  092%=      5-min Rain = 0
KTAT 221115Z 08005KT M04/M05 A2985 RMK A01 T10391051  RH  092%=      5-min Rain = 0
KTAT 221120Z 08006KT M04/M05 A2984 RMK A01 T10401052  RH  092%=      5-min Rain = 0
KTAT 221125Z 09006KT M04/M05 A2984 RMK A01 T10431054  RH  092%=      5-min Rain = 0
KTAT 221130Z 09007KT M04/M05 A2984 RMK A01 T10441054  RH  093%=      5-min Rain = 0
KTAT 221135Z 09008KT M04/M05 A2984 RMK A01 T10431053  RH  093%=      5-min Rain = 0
KTAT 221140Z 09007KT M04/M05 A2985 RMK A01 T10411051  RH  094%=      5-min Rain = 0
KTAT 221145Z 08006KT M04/M05 A2985 RMK A01 T10401049  RH  094%=      5-min Rain = 0
KTAT 221150Z 08006KT M04/M05 A2985 RMK A01 T10411050  RH  094%=      5-min Rain = 0
KTAT 221155Z 08006KT M04/M05 A2985 RMK A01 T10401049  RH  094%=      5-min Rain = 0
KTAT 221200Z 08005KT M04/M05 A2985 RMK A01 T10391048  RH  094%=      5-min Rain = 0
KTAT 221205Z 07004KT M04/M05 A2986 RMK A01 T10381047  RH  094%=      5-min Rain = 0
KTAT 221210Z 05004KT M04/M04 A2986 RMK A01 T10351044  RH  094%=      5-min Rain = 0
KTAT 221215Z 05003KT M03/M04 A2986 RMK A01 T10331041  RH  095%=      5-min Rain = 0
KTAT 221220Z 08005KT M04/M04 A2986 RMK A01 T10351044  RH  094%=      5-min Rain = 0
KTAT 221225Z 09005KT M04/M05 A2986 RMK A01 T10391048  RH  094%=      5-min Rain = 0
KTAT 221230Z 10005KT M04/M05 A2986 RMK A01 T10421051  RH  094%=      5-min Rain = 0
KTAT 221235Z 10005KT M05/M05 A2986 RMK A01 T10451054  RH  094%=      5-min Rain = 0
KTAT 221240Z 09005KT M05/M06 A2987 RMK A01 T10471056  RH  094%=      5-min Rain = 0
KTAT 221245Z 09005KT M05/M05 A2987 RMK A01 T10461054  RH  094%=      5-min Rain = 0
KTAT 221250Z 09005KT M04/M05 A2987 RMK A01 T10401047  RH  095%=      5-min Rain = 0
KTAT 221255Z 10004KT M03/M04 A2987 RMK A01 T10331039  RH  096%=      5-min Rain = 0
KTAT 221300Z 10005KT M03/M03 A2987 RMK A01 T10271034  RH  096%=      5-min Rain = 0
KTAT 221305Z 09005KT M02/M03 A2987 RMK A01 T10231030  RH  096%=      5-min Rain = 0
KTAT 221310Z 10005KT M02/M03 A2987 RMK A01 T10201028  RH  095%=      5-min Rain = 0
KTAT 221315Z 10005KT M02/M03 A2987 RMK A01 T10181026  RH  095%=      5-min Rain = 0
KTAT 221320Z 11005KT M02/M02 A2988 RMK A01 T10161023  RH  095%=      5-min Rain = 0
KTAT 221325Z 11007KT M01/M02 A2988 RMK A01 T10131021  RH  095%=      5-min Rain = 0
KTAT 221330Z 11007KT M01/M02 A2988 RMK A01 T10111019  RH  095%=      5-min Rain = 0
KTAT 221335Z 12007KT M01/M02 A2988 RMK A01 T10111019  RH  095%=      5-min Rain = 0
KTAT 221340Z 12006KT M01/M02 A2988 RMK A01 T10101018  RH  095%=      5-min Rain = 0
KTAT 221345Z 12006KT M01/M02 A2988 RMK A01 T10101017  RH  096%=      5-min Rain = 0
KTAT 221350Z 12006KT M01/M02 A2988 RMK A01 T10091016  RH  096%=      5-min Rain = 0
KTAT 221355Z 13006KT M01/M02 A2988 RMK A01 T10081015  RH  096%=      5-min Rain = 0
KTAT 221400Z 13006KT M01/M01 A2988 RMK A01 T10071014  RH  096%=      5-min Rain = 0
KTAT 221405Z 13008KT M01/M01 A2988 RMK A01 T10061013  RH  096%=      5-min Rain = 0
KTAT 221410Z 13009KT M01/M01 A2988 RMK A01 T10061013  RH  096%=      5-min Rain = 0
KTAT 221415Z 14008KT M01/M01 A2988 RMK A01 T10061013  RH  096%=      5-min Rain = 0
KTAT 221420Z 14008KT M01/M01 A2989 RMK A01 T10061013  RH  096%=      5-min Rain = 0
KTAT 221425Z 14008KT M01/M01 A2989 RMK A01 T10061013  RH  096%=      5-min Rain = 0
KTAT 221430Z 13008KT M01/M01 A2989 RMK A01 T10071013  RH  096%=      5-min Rain = 0
KTAT 221435Z 13008KT M01/M01 A299 RMK A01 T10061012  RH  097%=      5-min Rain = 0
KTAT 221440Z 13008KT M01/M01 A299 RMK A01 T10061012  RH  097%=      5-min Rain = 0
KTAT 221445Z 14006KT M01/M01 A2991 RMK A01 T10051011  RH  097%=      5-min Rain = 0
KTAT 221450Z 12006KT M00/M01 A2991 RMK A01 T10031010  RH  097%=      5-min Rain = 0
KTAT 221455Z 12006KT M00/M01 A2991 RMK A01 T10031009  RH  097%=      5-min Rain = 0
KTAT 221500Z 10005KT M00/M01 A2992 RMK A01 T10031009  RH  097%=      5-min Rain = 0
KTAT 221505Z 11006KT M00/M01 A2991 RMK A01 T10021008  RH  097%=      5-min Rain = 0
KTAT 221510Z 11006KT M00/M01 A2992 RMK A01 T10011007  RH  097%=      5-min Rain = 0
KTAT 221515Z 10006KT 00/M01 A2992 RMK A01 T00011005  RH  097%=      5-min Rain = 0
KTAT 221520Z 10005KT 00/M00 A2993 RMK A01 T00031004  RH  097%=      5-min Rain = 0
KTAT 221525Z 09005KT 01/M00 A2993 RMK A01 T00051001  RH  097%=      5-min Rain = 0
KTAT 221530Z 11007KT 01/00 A2993 RMK A01 T00070000  RH  097%=      5-min Rain = 0
KTAT 221535Z 11005KT 01/M00 A2993 RMK A01 T00061001  RH  097%=      5-min Rain = 0
KTAT 221540Z 10006KT 01/00 A2993 RMK A01 T00070001  RH  097%=      5-min Rain = 0
KTAT 221545Z 10006KT 01/00 A2993 RMK A01 T00080002  RH  097%=      5-min Rain = 0
KTAT 221550Z 11005KT 01/00 A2992 RMK A01 T00100003  RH  097%=      5-min Rain = 0
KTAT 221555Z 11005KT 01/01 A2992 RMK A01 T00130006  RH  097%=      5-min Rain = 0
KTAT 221600Z 11007KT 01/01 A2992 RMK A01 T00140007  RH  097%=      5-min Rain = 0
KTAT 221605Z 11004KT 01/01 A2992 RMK A01 T00120005  RH  097%=      5-min Rain = 0
KTAT 221610Z 09006KT 02/01 A2992 RMK A01 T00150008  RH  097%=      5-min Rain = 0
KTAT 221615Z 12007KT 02/01 A2992 RMK A01 T00150008  RH  097%=      5-min Rain = 0
KTAT 221620Z 11006KT 02/01 A2992 RMK A01 T00170010  RH  097%=      5-min Rain = 0
KTAT 221625Z 11006KT 02/01 A2992 RMK A01 T00180012  RH  097%=      5-min Rain = 0
KTAT 221630Z 10005KT 02/02 A2992 RMK A01 T00230015  RH  096%=      5-min Rain = 0
KTAT 221635Z 10006KT 02/02 A2992 RMK A01 T00240016  RH  096%=      5-min Rain = 0
KTAT 221640Z 09004KT 02/01 A2992 RMK A01 T00210014  RH  096%=      5-min Rain = 0
KTAT 221645Z 08006KT 03/02 A2992 RMK A01 T00250018  RH  096%=      5-min Rain = 0
KTAT 221650Z 08004KT 03/02 A2992 RMK A01 T00270019  RH  096%=      5-min Rain = 0
KTAT 221655Z 10007KT 03/02 A2991 RMK A01 T00300022  RH  096%=      5-min Rain = 0
KTAT 221700Z 10007KT 03/02 A2991 RMK A01 T00300022  RH  096%=      5-min Rain = 0
KTAT 221705Z 09007KT 03/03 A2991 RMK A01 T00340025  RH  096%=      5-min Rain = 0
KTAT 221710Z 09006KT 04/03 A2991 RMK A01 T00390029  RH  095%=      5-min Rain = 0
KTAT 221715Z 12007KT 05/04 A2991 RMK A01 T00460037  RH  095%=      5-min Rain = 0
KTAT 221720Z 11007KT 05/03 A2991 RMK A01 T00470034  RH  093%=      5-min Rain = 0
KTAT 221725Z 09008KT 06/03 A2991 RMK A01 T00590034  RH  086%=      5-min Rain = 0
KTAT 221730Z 11007KT 06/02 A2991 RMK A01 T00640022  RH  076%=      5-min Rain = 0
KTAT 221735Z 11007KT 06/02 A2991 RMK A01 T00640016  RH  073%=      5-min Rain = 0
KTAT 221740Z 09007KT 07/02 A299 RMK A01 T00690021  RH  073%=      5-min Rain = 0
KTAT 221745Z 11007G13KT 07/02 A299 RMK A01 T00740016  RH  067%=      5-min Rain = 0
KTAT 221750Z 10009KT 08/02 A299 RMK A01 T00800020  RH  067%=      5-min Rain = 0
KTAT 221755Z 12008KT 08/02 A299 RMK A01 T00820015  RH  064%=      5-min Rain = 0
KTAT 221800Z 11008G13KT 08/02 A2989 RMK A01 T00840017  RH  064%=      5-min Rain = 0
KTAT 221805Z 13008KT 08/01 A2989 RMK A01 T00810012  RH  063%=      5-min Rain = 0
KTAT 221810Z 11007KT 09/02 A2989 RMK A01 T00850020  RH  065%=      5-min Rain = 0
KTAT 221815Z 11008G13KT 10/02 A2989 RMK A01 T00980019  RH  059%=      5-min Rain = 0
KTAT 221820Z 11008KT 10/02 A2988 RMK A01 T00990019  RH  058%=      5-min Rain = 0
KTAT 221825Z 12008KT 10/02 A2988 RMK A01 T01000016  RH  057%=      5-min Rain = 0
KTAT 221830Z 13007KT 10/01 A2988 RMK A01 T01000011  RH  055%=      5-min Rain = 0
KTAT 221835Z 13008KT 11/02 A2987 RMK A01 T01080015  RH  053%=      5-min Rain = 0
KTAT 221840Z 12007KT 10/01 A2987 RMK A01 T01020013  RH  055%=      5-min Rain = 0
KTAT 221845Z 12008KT 11/02 A2987 RMK A01 T01100015  RH  053%=      5-min Rain = 0
KTAT 221850Z 12008KT 12/01 A2987 RMK A01 T01160013  RH  050%=      5-min Rain = 0
KTAT 221855Z 13007G13KT 12/02 A2986 RMK A01 T01230015  RH  048%=      5-min Rain = 0
KTAT 221900Z 12007KT 13/01 A2986 RMK A01 T01260012  RH  047%=      5-min Rain = 0
KTAT 221905Z 12006G11KT 13/01 A2986 RMK A01 T01260011  RH  046%=      5-min Rain = 0
KTAT 221910Z 12008KT 13/01 A2985 RMK A01 T01310008  RH  043%=      5-min Rain = 0
KTAT 221915Z 11006G11KT 14/01 A2985 RMK A01 T01360006  RH  042%=      5-min Rain = 0
KTAT 221920Z 13008KT 14/00 A2984 RMK A01 T01380003  RH  040%=      5-min Rain = 0
KTAT 221925Z 14008KT 14/M00 A2984 RMK A01 T01361002  RH  039%=      5-min Rain = 0
KTAT 221930Z 15008G13KT 14/M01 A2983 RMK A01 T01401007  RH  037%=      5-min Rain = 0
KTAT 221935Z 13009G14KT 14/M00 A2983 RMK A01 T01421003  RH  037%=      5-min Rain = 0
KTAT 221940Z 13008G14KT 15/M01 A2982 RMK A01 T01461007  RH  035%=      5-min Rain = 0
KTAT 221945Z 15010KT 15/M02 A2982 RMK A01 T01541019  RH  031%=      5-min Rain = 0
KTAT 221950Z 15010G23KT 16/M03 A2982 RMK A01 T01571025  RH  029%=      5-min Rain = 0
KTAT 221955Z 17011G16KT 17/M02 A2981 RMK A01 T01651023  RH  028%=      5-min Rain = 0
KTAT 222000Z 17010G18KT 17/M03 A2981 RMK A01 T01661031  RH  026%=      5-min Rain = 0
KTAT 222005Z 18012G19KT 17/M03 A2981 RMK A01 T01661032  RH  026%=      5-min Rain = 0
KTAT 222010Z 18012G17KT 17/M03 A298 RMK A01 T01681032  RH  025%=      5-min Rain = 0
KTAT 222015Z 17011G17KT 17/M03 A298 RMK A01 T01731031  RH  025%=      5-min Rain = 0
KTAT 222020Z 18012KT 17/M03 A298 RMK A01 T01721034  RH  024%=      5-min Rain = 0
KTAT 222025Z 17012G19KT 17/M04 A2979 RMK A01 T01731035  RH  024%=      5-min Rain = 0
KTAT 222030Z 17014G21KT 18/M04 A2979 RMK A01 T01781036  RH  023%=      5-min Rain = 0
KTAT 222035Z 16013G19KT 18/M04 A2979 RMK A01 T01781040  RH  023%=      5-min Rain = 0
KTAT 222040Z 16014KT 17/M04 A2978 RMK A01 T01741041  RH  023%=      5-min Rain = 0
KTAT 222045Z 16013G19KT 18/M04 A2978 RMK A01 T01781039  RH  023%=      5-min Rain = 0
KTAT 222050Z 16013G20KT 18/M04 A2977 RMK A01 T01781038  RH  023%=      5-min Rain = 0
KTAT 222055Z 16016KT 18/M03 A2977 RMK A01 T01801034  RH  023%=      5-min Rain = 0
KTAT 222100Z 15017G23KT 18/M04 A2977 RMK A01 T01761037  RH  023%=      5-min Rain = 0
KTAT 222105Z 14013G18KT 18/M04 A2977 RMK A01 T01781038  RH  023%=      5-min Rain = 0
KTAT 222110Z 15015G23KT 18/M04 A2977 RMK A01 T01811038  RH  022%=      5-min Rain = 0
KTAT 222115Z 17015G21KT 19/M05 A2977 RMK A01 T01901047  RH  020%=      5-min Rain = 0
KTAT 222120Z 19017G23KT 19/M08 A2976 RMK A01 T01851077  RH  016%=      5-min Rain = 0
KTAT 222125Z 17017G23KT 19/M07 A2976 RMK A01 T01861073  RH  017%=      5-min Rain = 0
KTAT 222130Z 17017KT 19/M07 A2976 RMK A01 T01851073  RH  017%=      5-min Rain = 0
KTAT 222135Z 18013G19KT 18/M07 A2976 RMK A01 T01841071  RH  017%=      5-min Rain = 0
KTAT 222140Z 17016G23KT 18/M07 A2976 RMK A01 T01841072  RH  017%=      5-min Rain = 0
KTAT 222145Z 17016G22KT 19/M07 A2976 RMK A01 T01871072  RH  017%=      5-min Rain = 0
KTAT 222150Z 18014G20KT 19/M07 A2976 RMK A01 T01901073  RH  016%=      5-min Rain = 0
KTAT 222155Z 20018G24KT 19/M08 A2975 RMK A01 T01871082  RH  015%=      5-min Rain = 0
KTAT 222200Z 21017G23KT 19/M08 A2975 RMK A01 T01851083  RH  015%=      5-min Rain = 0
KTAT 222205Z 20017G22KT 18/M08 A2975 RMK A01 T01831083  RH  016%=      5-min Rain = 0
KTAT 222210Z 18017G23KT 19/M08 A2975 RMK A01 T01861083  RH  015%=      5-min Rain = 0
KTAT 222215Z 17015G20KT 19/M08 A2974 RMK A01 T01901082  RH  015%=      5-min Rain = 0
KTAT 222220Z 19017G25KT 19/M09 A2974 RMK A01 T01891087  RH  015%=      5-min Rain = 0
KTAT 222225Z 18019G27KT 19/M09 A2974 RMK A01 T01911085  RH  015%=      5-min Rain = 0
KTAT 222230Z 18019G24KT 19/M09 A2974 RMK A01 T01901085  RH  015%=      5-min Rain = 0
KTAT 222235Z 18017G23KT 19/M09 A2974 RMK A01 T01851087  RH  015%=      5-min Rain = 0
KTAT 222240Z 17014G20KT 19/M09 A2974 RMK A01 T01891087  RH  015%=      5-min Rain = 0
KTAT 222245Z 19017G26KT 19/M09 A2974 RMK A01 T01911089  RH  014%=      5-min Rain = 0
KTAT 222250Z 20019G25KT 19/M10 A2973 RMK A01 T01851096  RH  014%=      5-min Rain = 0
KTAT 222255Z 20018G23KT 18/M10 A2973 RMK A01 T01811096  RH  014%=      5-min Rain = 0
KTAT 222300Z 19017G24KT 18/M09 A2973 RMK A01 T01821094  RH  014%=      5-min Rain = 0
KTAT 222305Z 18017G24KT 18/M09 A2973 RMK A01 T01831092  RH  014%=      5-min Rain = 0
KTAT 222310Z 17017G23KT 18/M09 A2973 RMK A01 T01831088  RH  015%=      5-min Rain = 0
KTAT 222315Z 16017KT 18/M09 A2973 RMK A01 T01821089  RH  015%=      5-min Rain = 0
KTAT 222320Z 17016G21KT 18/M09 A2973 RMK A01 T01771091  RH  015%=      5-min Rain = 0
KTAT 222325Z 16016KT 17/M09 A2973 RMK A01 T01741092  RH  015%=      5-min Rain = 0
KTAT 222330Z 16015KT 18/M09 A2972 RMK A01 T01751090  RH  015%=      5-min Rain = 0
KTAT 222335Z 16016G22KT 18/M09 A2972 RMK A01 T01771090  RH  015%=      5-min Rain = 0
KTAT 222340Z 16016G21KT 17/M09 A2972 RMK A01 T01741093  RH  015%=      5-min Rain = 0
KTAT 222345Z 16013KT 17/M09 A2972 RMK A01 T01731091  RH  016%=      5-min Rain = 0
KTAT 222350Z 16014KT 17/M09 A2972 RMK A01 T01711092  RH  016%=      5-min Rain = 0
KTAT 222355Z 16014KT 17/M09 A2972 RMK A01 T01691091  RH  016%=      5-min Rain = 0
KTAT 230000Z 16013KT 17/M09 A2971 RMK A01 T01671091  RH  016%=      5-min Rain = 0
KTAT 230005Z 16013KT 17/M09 A2971 RMK A01 T01651090  RH  016%=      5-min Rain = 0
KTAT 230010Z 15010KT 16/M09 A297 RMK A01 T01621090  RH  017%=      5-min Rain = 0
KTAT 230015Z 15010KT 16/M09 A297 RMK A01 T01571086  RH  018%=      5-min Rain = 0
KTAT 230020Z 14011KT 15/M08 A297 RMK A01 T01501083  RH  019%=      5-min Rain = 0
KTAT 230025Z 14011KT 15/M08 A297 RMK A01 T01461083  RH  020%=      5-min Rain = 0
KTAT 230030Z 14008KT 14/M08 A297 RMK A01 T01401083  RH  020%=      5-min Rain = 0
KTAT 230035Z 13009KT 13/M08 A297 RMK A01 T01321082  RH  022%=      5-min Rain = 0
KTAT 230040Z 14009KT 13/M08 A2969 RMK A01 T01281082  RH  022%=      5-min Rain = 0
KTAT 230045Z 14009KT 12/M08 A2969 RMK A01 T01241082  RH  023%=      5-min Rain = 0
KTAT 230050Z 13008KT 12/M08 A2969 RMK A01 T01211082  RH  023%=      5-min Rain = 0
KTAT 230055Z 12008KT 12/M08 A2969 RMK A01 T01151083  RH  024%=      5-min Rain = 0
KTAT 230100Z 12007KT 11/M08 A2968 RMK A01 T01091082  RH  025%=      5-min Rain = 0
KTAT 230105Z 12007KT 11/M08 A2968 RMK A01 T01091079  RH  026%=      5-min Rain = 0
KTAT 230110Z 12008KT 11/M08 A2968 RMK A01 T01141075  RH  026%=      5-min Rain = 0
KTAT 230115Z 12009KT 12/M07 A2968 RMK A01 T01171071  RH  026%=      5-min Rain = 0
KTAT 230120Z 12009KT 12/M06 A2968 RMK A01 T01201064  RH  027%=      5-min Rain = 0
KTAT 230125Z 12010G17KT 12/M06 A2969 RMK A01 T01221059  RH  028%=      5-min Rain = 0
KTAT 230130Z 10016G25KT 13/M00 A2969 RMK A01 T01261004  RH  041%=      5-min Rain = 0
KTAT 230135Z 10016G23KT 13/02 A297 RMK A01 T01270017  RH  048%=      5-min Rain = 0
KTAT 230140Z 10016G22KT 13/04 A2971 RMK A01 T01250036  RH  056%=      5-min Rain = 0
KTAT 230145Z 12017G22KT 12/04 A2972 RMK A01 T01220042  RH  059%=      5-min Rain = 0
KTAT 230150Z 11017KT 12/04 A2972 RMK A01 T01200043  RH  060%=      5-min Rain = 0
KTAT 230155Z 12014G20KT 12/04 A2972 RMK A01 T01180043  RH  061%=      5-min Rain = 0
KTAT 230200Z 11017G22KT 12/04 A2972 RMK A01 T01160041  RH  061%=      5-min Rain = 0
KTAT 230205Z 13016G21KT 12/04 A2972 RMK A01 T01170036  RH  058%=      5-min Rain = 0
KTAT 230210Z 12016G21KT 12/04 A2971 RMK A01 T01160038  RH  060%=      5-min Rain = 0
KTAT 230215Z 12012G18KT 11/03 A2971 RMK A01 T01130034  RH  060%=      5-min Rain = 0
KTAT 230220Z 13015KT 12/03 A297 RMK A01 T01160026  RH  055%=      5-min Rain = 0
KTAT 230225Z 12019KT 12/02 A297 RMK A01 T01210024  RH  052%=      5-min Rain = 0
KTAT 230230Z 12017KT 12/03 A297 RMK A01 T01190027  RH  054%=      5-min Rain = 0
KTAT 230235Z 12017KT 12/03 A2969 RMK A01 T01180028  RH  055%=      5-min Rain = 0
KTAT 230240Z 12019G24KT 12/03 A2969 RMK A01 T01170032  RH  057%=      5-min Rain = 0
KTAT 230245Z 12020G25KT 12/03 A297 RMK A01 T01160032  RH  057%=      5-min Rain = 0
KTAT 230250Z 11019G25KT 11/04 A297 RMK A01 T01140035  RH  059%=      5-min Rain = 0
KTAT 230255Z 11021KT 11/04 A2971 RMK A01 T01080043  RH  065%=      5-min Rain = 0
KTAT 230300Z 11020G25KT 10/05 A2971 RMK A01 T01010048  RH  071%=      5-min Rain = 0
KTAT 230305Z 10021G27KT 10/05 A297 RMK A01 T00950049  RH  074%=      5-min Rain = 0
KTAT 230310Z 09019G26KT 09/05 A2971 RMK A01 T00910050  RH  077%=      5-min Rain = 0
KTAT 230315Z 09014G19KT 09/05 A297 RMK A01 T00870050  RH  080%=      5-min Rain = 0
KTAT 230320Z 09014G19KT 09/05 A297 RMK A01 T00850051  RH  081%=      5-min Rain = 0
KTAT 230325Z 08014KT 08/05 A297 RMK A01 T00820051  RH  083%=      5-min Rain = 0
KTAT 230330Z 09014KT 08/05 A297 RMK A01 T00800051  RH  084%=      5-min Rain = 0
KTAT 230335Z 09018G25KT 08/05 A2969 RMK A01 T00790052  RH  084%=      5-min Rain = 0
KTAT 230340Z 10019G24KT 08/05 A2969 RMK A01 T00780053  RH  086%=      5-min Rain = 0
KTAT 230345Z 09019KT 08/05 A2968 RMK A01 T00760054  RH  088%=      5-min Rain = 0
KTAT 230350Z 09017KT 07/05 A2969 RMK A01 T00740054  RH  089%=      5-min Rain = 0
KTAT 230355Z 08015KT 07/05 A2969 RMK A01 T00720052  RH  089%=      5-min Rain = 0
KTAT 230400Z 06011G16KT 07/05 A2969 RMK A01 T00700052  RH  090%=      5-min Rain = 0
KTAT 230405Z 05005KT 07/05 A297 RMK A01 T00690052  RH  091%=      5-min Rain = 0
KTAT 230410Z 04006KT 07/05 A2971 RMK A01 T00690052  RH  091%=      5-min Rain = 0
KTAT 230415Z 05008KT 07/05 A2972 RMK A01 T00690052  RH  091%=      5-min Rain = 0
KTAT 230420Z 35003KT 07/05 A2974 RMK A01 T00690052  RH  091%=      5-min Rain = 0
KTAT 230425Z 26003KT 07/05 A2976 RMK A01 T00690052  RH  091%=      5-min Rain = 0
KTAT 230430Z 23003KT 07/05 A2976 RMK A01 T00660048  RH  090%=      5-min Rain = 0.06
KTAT 230435Z 24001KT 06/04 A2977 RMK A01 T00610044  RH  091%=      5-min Rain = 0.01
KTAT 230440Z 09003KT 06/05 A2976 RMK A01 T00630048  RH  092%=      5-min Rain = 0.01
KTAT 230445Z 09006KT 06/05 A2975 RMK A01 T00610045  RH  092%=      5-min Rain = 0
KTAT 230450Z 09007KT 06/04 A2975 RMK A01 T00590044  RH  092%=      5-min Rain = 0
KTAT 230455Z 09006KT 06/04 A2974 RMK A01 T00550040  RH  092%=      5-min Rain = 0
KTAT 230500Z 09004KT 05/04 A2975 RMK A01 T00500036  RH  092%=      5-min Rain = 0
KTAT 230505Z 29002KT 05/04 A2975 RMK A01 T00500037  RH  093%=      5-min Rain = 0
KTAT 230510Z 27003KT 06/05 A2976 RMK A01 T00570045  RH  094%=      5-min Rain = 0
KTAT 230515Z 24001KT 06/05 A2975 RMK A01 T00600048  RH  094%=      5-min Rain = 0
KTAT 230520Z 18002KT 06/05 A2975 RMK A01 T00610048  RH  094%=      5-min Rain = 0
KTAT 230525Z 18004KT 06/05 A2975 RMK A01 T00610048  RH  094%=      5-min Rain = 0
KTAT 230530Z 21005KT 06/05 A2975 RMK A01 T00620050  RH  094%=      5-min Rain = 0
KTAT 230535Z 15008KT 06/05 A2974 RMK A01 T00630051  RH  094%=      5-min Rain = 0
KTAT 230540Z 15011G18KT 06/05 A2975 RMK A01 T00640051  RH  094%=      5-min Rain = 0
KTAT 230545Z 17010KT 07/05 A2975 RMK A01 T00660054  RH  094%=      5-min Rain = 0
KTAT 230550Z 18007KT 07/05 A2976 RMK A01 T00650051  RH  093%=      5-min Rain = 0
KTAT 230555Z 22009KT 06/05 A2977 RMK A01 T00640051  RH  093%=      5-min Rain = 0

Page generated in 0.0364 seconds.